createdAt,value
2022-08-23T00:00:32.026Z,85.54
2022-08-23T00:01:32.024Z,85.74
2022-08-23T00:02:32.058Z,84.94
2022-08-23T00:03:32.033Z,86.08
2022-08-23T00:04:35.256Z,86.79
2022-08-23T00:05:32.020Z,86.29
2022-08-23T00:06:32.011Z,86.38
2022-08-23T00:07:36.362Z,86.49
2022-08-23T00:08:32.007Z,86.65
2022-08-23T00:09:32.005Z,86.49
2022-08-23T00:10:32.012Z,86.38
2022-08-23T00:11:32.006Z,87.09
2022-08-23T00:12:31.999Z,86.58
2022-08-23T00:13:47.479Z,86.58
2022-08-23T00:14:31.991Z,86.08
2022-08-23T00:15:31.989Z,86.38
2022-08-23T00:16:31.987Z,87.15
2022-08-23T00:17:34.345Z,86.89
2022-08-23T00:18:31.979Z,86.49
2022-08-23T00:19:31.976Z,86.18
2022-08-23T00:20:31.973Z,86.49
2022-08-23T00:21:31.967Z,86.49
2022-08-23T00:22:31.965Z,86.15
2022-08-23T00:23:31.965Z,86.44
2022-08-23T00:24:31.964Z,86.35
2022-08-23T00:25:31.962Z,86.85
2022-08-23T00:26:31.962Z,86.44
2022-08-23T00:27:31.957Z,86.35
2022-08-23T00:28:31.951Z,86.55
2022-08-23T00:29:31.986Z,85.74
2022-08-23T00:30:31.949Z,86.35
2022-08-23T00:31:31.994Z,84.94
2022-08-23T00:32:31.944Z,85.24
2022-08-23T00:33:31.938Z,84.94
2022-08-23T00:34:31.938Z,86.04
2022-08-23T00:35:31.934Z,85.34
2022-08-23T00:36:31.934Z,85.20
2022-08-23T00:37:31.933Z,85.14
2022-08-23T00:38:34.965Z,85.03
2022-08-23T00:39:31.947Z,86.04
2022-08-23T00:40:31.921Z,84.89
2022-08-23T00:41:31.919Z,85.03
2022-08-23T00:42:31.911Z,86.24
2022-08-23T00:43:31.921Z,86.24
2022-08-23T00:44:31.910Z,86.65
2022-08-23T00:45:31.911Z,85.74
2022-08-23T00:46:31.903Z,85.34
2022-08-23T00:47:31.899Z,86.04
2022-08-23T00:48:31.899Z,86.24
2022-08-23T00:49:31.896Z,86.35
2022-08-23T00:50:31.939Z,86.15
2022-08-23T00:51:31.890Z,86.24
2022-08-23T00:52:31.894Z,86.24
2022-08-23T00:53:31.885Z,85.74
2022-08-23T00:54:31.881Z,86.15
2022-08-23T00:55:31.882Z,86.15
2022-08-23T00:56:31.875Z,86.24
2022-08-23T00:57:31.875Z,86.24
2022-08-23T00:58:31.885Z,86.35
2022-08-23T00:59:31.888Z,86.15
2022-08-23T01:00:31.892Z,85.94
2022-08-23T01:01:31.978Z,86.04
2022-08-23T01:02:31.915Z,85.74
2022-08-23T01:03:38.634Z,85.14
2022-08-23T01:04:31.852Z,85.14
2022-08-23T01:05:31.852Z,85.14
2022-08-23T01:06:31.847Z,85.03
2022-08-23T01:07:31.846Z,85.34
2022-08-23T01:08:31.848Z,85.24
2022-08-23T01:09:31.842Z,85.14
2022-08-23T01:10:31.852Z,85.14
2022-08-23T01:11:31.846Z,85.44
2022-08-23T01:12:32.825Z,85.03
2022-08-23T01:13:31.882Z,84.94
2022-08-23T01:14:31.845Z,85.34
2022-08-23T01:15:31.853Z,85.34
2022-08-23T01:16:31.845Z,85.44
2022-08-23T01:17:31.850Z,85.34
2022-08-23T01:18:31.849Z,85.14
2022-08-23T01:19:32.004Z,85.03
2022-08-23T01:20:31.849Z,86.35
2022-08-23T01:21:31.810Z,85.84
2022-08-23T01:22:31.804Z,86.15
2022-08-23T01:23:31.803Z,86.35
2022-08-23T01:24:43.977Z,86.35
2022-08-23T01:25:31.793Z,86.75
2022-08-23T01:26:31.792Z,86.04
2022-08-23T01:27:32.162Z,85.84
2022-08-23T01:28:31.787Z,86.29
2022-08-23T01:29:31.787Z,86.29
2022-08-23T01:30:31.782Z,86.49
2022-08-23T01:31:31.779Z,86.49
2022-08-23T01:32:31.777Z,86.49
2022-08-23T01:33:31.774Z,86.38
2022-08-23T01:34:34.635Z,86.69
2022-08-23T01:35:31.773Z,85.88
2022-08-23T01:36:31.768Z,85.68
2022-08-23T01:37:31.761Z,85.78
2022-08-23T01:38:32.869Z,85.78
2022-08-23T01:39:31.756Z,85.88
2022-08-23T01:40:31.756Z,85.48
2022-08-23T01:41:31.749Z,86.08
2022-08-23T01:42:31.777Z,86.08
2022-08-23T01:43:31.747Z,85.88
2022-08-23T01:44:31.741Z,85.78
2022-08-23T01:45:31.741Z,85.88
2022-08-23T01:46:31.736Z,86.29
2022-08-23T01:47:31.734Z,85.58
2022-08-23T01:48:31.731Z,85.98
2022-08-23T01:49:31.729Z,85.98
2022-08-23T01:50:31.791Z,85.58
2022-08-23T01:51:31.727Z,84.97
2022-08-23T01:52:31.719Z,85.17
2022-08-23T01:53:31.717Z,84.97
2022-08-23T01:54:31.713Z,85.38
2022-08-23T01:55:31.735Z,85.68
2022-08-23T01:56:38.723Z,85.38
2022-08-23T01:57:31.705Z,84.67
2022-08-23T01:58:31.702Z,85.17
2022-08-23T01:59:31.699Z,85.08
2022-08-23T02:00:31.699Z,83.97
2022-08-23T02:01:31.744Z,84.17
2022-08-23T02:02:31.701Z,83.97
2022-08-23T02:03:31.688Z,83.83
2022-08-23T02:04:31.688Z,84.57
2022-08-23T02:05:31.685Z,84.47
2022-08-23T02:06:31.679Z,83.97
2022-08-23T02:07:31.677Z,84.13
2022-08-23T02:08:31.678Z,83.36
2022-08-23T02:09:31.669Z,83.56
2022-08-23T02:10:31.670Z,83.97
2022-08-23T02:11:31.665Z,83.46
2022-08-23T02:12:31.664Z,83.56
2022-08-23T02:13:31.657Z,83.66
2022-08-23T02:14:31.655Z,83.56
2022-08-23T02:15:31.654Z,83.46
2022-08-23T02:16:31.654Z,83.46
2022-08-23T02:17:31.648Z,83.56
2022-08-23T02:18:31.645Z,83.66
2022-08-23T02:19:31.644Z,83.56
2022-08-23T02:20:31.640Z,83.16
2022-08-23T02:21:31.638Z,83.36
2022-08-23T02:22:31.636Z,83.36
2022-08-23T02:23:31.631Z,83.56
2022-08-23T02:24:31.853Z,83.56
2022-08-23T02:25:31.625Z,83.36
2022-08-23T02:26:31.623Z,83.46
2022-08-23T02:27:31.620Z,83.56
2022-08-23T02:28:31.615Z,83.56
2022-08-23T02:29:31.613Z,83.40
2022-08-23T02:30:31.611Z,83.56
2022-08-23T02:31:31.607Z,83.56
2022-08-23T02:32:31.603Z,83.60
2022-08-23T02:35:05.658Z,83.46
2022-08-23T02:36:03.243Z,83.66
2022-08-23T02:38:07.232Z,83.56
2022-08-23T02:39:07.217Z,83.80
2022-08-23T02:41:11.206Z,83.76
2022-08-23T02:42:11.754Z,83.56
2022-08-23T02:44:15.672Z,83.46
2022-08-23T02:45:15.661Z,83.46
2022-08-23T02:46:15.659Z,83.56
2022-08-23T02:47:22.829Z,83.46
2022-08-23T02:49:20.336Z,83.97
2022-08-23T02:50:20.106Z,83.97
2022-08-23T02:52:23.906Z,83.87
2022-08-23T02:53:23.887Z,84.01
2022-08-23T02:55:28.388Z,84.07
2022-08-23T02:56:28.375Z,84.07
2022-08-23T02:57:28.367Z,83.97
2022-08-23T02:58:28.374Z,84.07
2022-08-23T02:59:28.365Z,84.11
2022-08-23T03:00:28.374Z,83.46
2022-08-23T03:01:28.372Z,83.56
2022-08-23T03:02:28.390Z,83.56
2022-08-23T03:03:28.352Z,83.70
2022-08-23T03:04:28.349Z,83.46
2022-08-23T03:05:28.346Z,83.46
2022-08-23T03:06:28.346Z,83.50
2022-08-23T03:07:28.341Z,83.40
2022-08-23T03:08:28.336Z,84.11
2022-08-23T03:09:28.351Z,84.07
2022-08-23T03:10:28.347Z,83.87
2022-08-23T03:11:28.366Z,84.47
2022-08-23T03:12:28.352Z,84.61
2022-08-23T03:13:28.322Z,84.41
2022-08-23T03:14:28.319Z,84.31
2022-08-23T03:15:28.321Z,84.57
2022-08-23T03:16:28.312Z,84.31
2022-08-23T03:17:28.308Z,85.52
2022-08-23T03:18:28.307Z,85.11
2022-08-23T03:19:28.303Z,85.22
2022-08-23T03:20:28.344Z,85.62
2022-08-23T03:21:28.327Z,86.13
2022-08-23T03:22:28.313Z,85.62
2022-08-23T03:23:28.293Z,85.72
2022-08-23T03:24:28.294Z,85.42
2022-08-23T03:25:28.284Z,85.82
2022-08-23T03:26:28.282Z,85.31
2022-08-23T03:27:28.277Z,86.13
2022-08-23T03:28:28.275Z,85.25
2022-08-23T03:29:28.274Z,85.22
2022-08-23T03:30:28.266Z,85.31
2022-08-23T03:31:29.287Z,85.11
2022-08-23T03:32:28.264Z,85.31
2022-08-23T03:33:28.257Z,85.62
2022-08-23T03:34:28.252Z,86.33
2022-08-23T03:35:28.252Z,85.22
2022-08-23T03:36:28.489Z,85.22
2022-08-23T03:37:28.244Z,85.02
2022-08-23T03:38:28.243Z,86.33
2022-08-23T03:39:28.241Z,86.43
2022-08-23T03:40:28.234Z,85.22
2022-08-23T03:41:28.234Z,86.33
2022-08-23T03:42:28.572Z,86.13
2022-08-23T03:43:28.226Z,86.43
2022-08-23T03:44:28.224Z,86.33
2022-08-23T03:45:28.221Z,86.33
2022-08-23T03:46:30.969Z,86.13
2022-08-23T03:47:28.216Z,85.22
2022-08-23T03:48:28.212Z,86.33
2022-08-23T03:49:28.209Z,86.13
2022-08-23T03:50:28.221Z,85.11
2022-08-23T03:51:28.201Z,85.31
2022-08-23T03:52:28.198Z,85.22
2022-08-23T03:53:28.197Z,86.33
2022-08-23T03:54:28.194Z,85.22
2022-08-23T03:55:28.193Z,85.02
2022-08-23T03:56:28.189Z,85.02
2022-08-23T03:57:28.193Z,85.31
2022-08-23T03:58:28.181Z,85.22
2022-08-23T03:59:28.177Z,85.22
2022-08-23T04:00:28.174Z,85.11
2022-08-23T04:01:28.936Z,86.22
2022-08-23T04:02:28.169Z,86.33
2022-08-23T04:03:28.167Z,86.33
2022-08-23T04:04:28.164Z,86.43
2022-08-23T04:05:28.159Z,86.73
2022-08-23T04:06:28.156Z,86.33
2022-08-23T04:07:28.152Z,86.22
2022-08-23T04:08:33.339Z,86.43
2022-08-23T04:09:28.148Z,86.22
2022-08-23T04:10:28.144Z,86.63
2022-08-23T04:11:28.141Z,86.33
2022-08-23T04:12:28.142Z,86.53
2022-08-23T04:13:28.136Z,86.83
2022-08-23T04:14:28.133Z,86.83
2022-08-23T04:15:28.129Z,86.63
2022-08-23T04:16:28.126Z,87.23
2022-08-23T04:17:32.078Z,87.03
2022-08-23T04:18:28.121Z,87.23
2022-08-23T04:19:28.114Z,87.48
2022-08-23T04:20:28.114Z,87.58
2022-08-23T04:21:28.111Z,87.88
2022-08-23T04:22:28.106Z,88.08
2022-08-23T04:23:28.104Z,87.98
2022-08-23T04:24:28.099Z,87.68
2022-08-23T04:25:34.654Z,87.88
2022-08-23T04:26:30.283Z,88.18
2022-08-23T04:27:28.090Z,87.68
2022-08-23T04:28:28.090Z,87.27
2022-08-23T04:29:33.954Z,87.54
2022-08-23T04:30:28.079Z,87.43
2022-08-23T04:31:28.078Z,87.84
2022-08-23T04:32:28.420Z,87.84
2022-08-23T04:33:28.074Z,87.94
2022-08-23T04:34:28.705Z,87.34
2022-08-23T04:35:28.068Z,87.63
2022-08-23T04:36:28.062Z,87.63
2022-08-23T04:37:28.066Z,87.54
2022-08-23T04:38:28.058Z,87.23
2022-08-23T04:39:28.056Z,87.54
2022-08-23T04:40:28.073Z,87.74
2022-08-23T04:41:28.046Z,87.84
2022-08-23T04:42:28.043Z,87.43
2022-08-23T04:43:28.042Z,88.04
2022-08-23T04:44:28.038Z,88.14
2022-08-23T04:45:28.036Z,88.45
2022-08-23T04:46:28.038Z,88.45
2022-08-23T04:47:28.032Z,88.24
2022-08-23T04:48:28.025Z,88.85
2022-08-23T04:49:28.020Z,88.34
2022-08-23T04:50:28.021Z,88.45
2022-08-23T04:51:28.015Z,88.65
2022-08-23T04:52:28.013Z,88.75
2022-08-23T04:53:28.010Z,88.89
2022-08-23T04:54:28.007Z,88.85
2022-08-23T04:55:28.005Z,88.89
2022-08-23T04:56:28.000Z,88.95
2022-08-23T04:57:27.997Z,88.95
2022-08-23T04:58:27.996Z,88.95
2022-08-23T04:59:27.991Z,88.75
2022-08-23T05:00:28.224Z,88.85
2022-08-23T05:01:28.047Z,88.85
2022-08-23T05:02:27.982Z,88.45
2022-08-23T05:03:27.983Z,88.75
2022-08-23T05:04:27.986Z,88.95
2022-08-23T05:05:27.980Z,88.70
2022-08-23T05:06:27.971Z,89.05
2022-08-23T05:07:33.802Z,88.45
2022-08-23T05:08:27.965Z,88.40
2022-08-23T05:09:27.965Z,88.40
2022-08-23T05:10:27.955Z,88.40
2022-08-23T05:11:27.954Z,88.40
2022-08-23T05:12:27.951Z,88.10
2022-08-23T05:13:27.952Z,88.10
2022-08-23T05:14:27.947Z,88.00
2022-08-23T05:15:27.948Z,87.90
2022-08-23T05:16:27.940Z,88.10
2022-08-23T05:17:27.935Z,88.10
2022-08-23T05:18:27.934Z,88.10
2022-08-23T05:19:27.935Z,87.70
2022-08-23T05:20:27.929Z,87.60
2022-08-23T05:21:27.926Z,87.29
2022-08-23T05:22:27.919Z,87.19
2022-08-23T05:23:31.811Z,86.99
2022-08-23T05:24:27.919Z,87.15
2022-08-23T05:25:27.911Z,86.75
2022-08-23T05:26:27.911Z,87.05
2022-08-23T05:27:27.910Z,86.69
2022-08-23T05:28:27.902Z,86.79
2022-08-23T05:29:27.904Z,86.75
2022-08-23T05:30:27.898Z,87.05
2022-08-23T05:31:27.895Z,87.09
2022-08-23T05:32:32.819Z,86.44
2022-08-23T05:33:27.889Z,86.55
2022-08-23T05:34:27.885Z,86.35
2022-08-23T05:35:27.881Z,86.35
2022-08-23T05:36:27.881Z,86.44
2022-08-23T05:37:27.878Z,86.75
2022-08-23T05:38:27.872Z,86.44
2022-08-23T05:39:36.111Z,86.04
2022-08-23T05:40:27.866Z,86.71
2022-08-23T05:41:37.834Z,86.75
2022-08-23T05:42:27.861Z,85.60
2022-08-23T05:43:27.860Z,86.41
2022-08-23T05:44:27.856Z,86.51
2022-08-23T05:45:27.854Z,86.30
2022-08-23T05:46:28.352Z,85.90
2022-08-23T05:47:27.847Z,86.71
2022-08-23T05:48:27.845Z,85.90
2022-08-23T05:49:27.842Z,86.51
2022-08-23T05:50:27.838Z,86.41
2022-08-23T05:51:27.835Z,86.46
2022-08-23T05:52:27.835Z,85.46
2022-08-23T05:53:27.831Z,85.56
2022-08-23T05:54:27.827Z,85.76
2022-08-23T05:55:35.054Z,85.76
2022-08-23T05:56:27.819Z,86.32
2022-08-23T05:57:27.821Z,86.06
2022-08-23T05:58:27.814Z,86.06
2022-08-23T05:59:27.813Z,84.81
2022-08-23T06:00:38.126Z,85.62
2022-08-23T06:01:27.853Z,84.57
2022-08-23T06:02:27.803Z,84.27
2022-08-23T06:03:27.802Z,83.73
2022-08-23T06:04:27.801Z,83.83
2022-08-23T06:05:27.795Z,83.83
2022-08-23T06:06:37.121Z,83.23
2022-08-23T06:07:27.792Z,83.12
2022-08-23T06:08:27.788Z,82.89
2022-08-23T06:09:27.783Z,82.68
2022-08-23T06:10:27.819Z,82.89
2022-08-23T06:11:27.783Z,82.38
2022-08-23T06:12:27.774Z,82.38
2022-08-23T06:13:27.776Z,82.68
2022-08-23T06:14:27.829Z,82.24
2022-08-23T06:15:27.768Z,81.54
2022-08-23T06:16:27.769Z,82.00
2022-08-23T06:17:27.766Z,81.70
2022-08-23T06:18:27.762Z,81.40
2022-08-23T06:19:27.760Z,81.16
2022-08-23T06:20:27.846Z,81.00
2022-08-23T06:21:27.756Z,81.50
2022-08-23T06:22:27.754Z,81.60
2022-08-23T06:23:27.752Z,82.24
2022-08-23T06:24:27.752Z,82.48
2022-08-23T06:25:27.748Z,83.18
2022-08-23T06:26:27.746Z,83.39
2022-08-23T06:27:27.743Z,83.29
2022-08-23T06:28:27.770Z,83.29
2022-08-23T06:29:27.782Z,83.29
2022-08-23T06:30:27.889Z,83.15
2022-08-23T06:31:27.759Z,82.98
2022-08-23T06:32:27.787Z,83.18
2022-08-23T06:33:27.775Z,83.18
2022-08-23T06:34:27.730Z,83.29
2022-08-23T06:35:37.954Z,83.89
2022-08-23T06:36:27.725Z,83.69
2022-08-23T06:37:27.722Z,83.18
2022-08-23T06:38:27.718Z,83.69
2022-08-23T06:39:27.717Z,83.18
2022-08-23T06:40:27.746Z,83.69
2022-08-23T06:41:27.712Z,84.19
2022-08-23T06:42:38.410Z,84.09
2022-08-23T06:43:27.727Z,84.19
2022-08-23T06:44:27.707Z,83.89
2022-08-23T06:45:33.725Z,83.99
2022-08-23T06:46:28.269Z,84.25
2022-08-23T06:47:27.700Z,83.75
2022-08-23T06:48:27.704Z,84.15
2022-08-23T06:49:27.708Z,83.89
2022-08-23T06:50:32.082Z,83.85
2022-08-23T06:51:27.693Z,83.49
2022-08-23T06:52:27.762Z,84.29
2022-08-23T06:53:27.691Z,83.75
2022-08-23T06:54:27.689Z,83.65
2022-08-23T06:55:27.685Z,84.25
2022-08-23T06:56:27.681Z,83.95
2022-08-23T06:57:27.680Z,84.35
2022-08-23T06:58:27.678Z,84.25
2022-08-23T06:59:27.684Z,84.15
2022-08-23T07:00:27.789Z,84.25
2022-08-23T07:01:45.334Z,84.59
2022-08-23T07:02:27.704Z,85.36
2022-08-23T07:03:27.670Z,84.75
2022-08-23T07:04:27.666Z,84.59
2022-08-23T07:05:27.670Z,85.05
2022-08-23T07:06:27.663Z,85.10
2022-08-23T07:07:37.532Z,85.39
2022-08-23T07:08:27.659Z,84.45
2022-08-23T07:09:27.661Z,84.69
2022-08-23T07:10:27.653Z,85.10
2022-08-23T07:11:27.653Z,85.60
2022-08-23T07:12:27.654Z,85.39
2022-08-23T07:13:27.652Z,85.10
2022-08-23T07:14:27.648Z,85.90
2022-08-23T07:15:27.646Z,84.75
2022-08-23T07:16:27.736Z,85.46
2022-08-23T07:17:27.647Z,85.46
2022-08-23T07:18:27.639Z,85.05
2022-08-23T07:19:29.047Z,85.25
2022-08-23T07:20:27.637Z,84.91
2022-08-23T07:21:27.636Z,84.31
2022-08-23T07:22:27.635Z,84.75
2022-08-23T07:23:27.632Z,84.51
2022-08-23T07:24:32.342Z,84.71
2022-08-23T07:25:27.632Z,84.71
2022-08-23T07:26:27.627Z,84.61
2022-08-23T07:27:27.626Z,85.02
2022-08-23T07:28:27.625Z,84.51
2022-08-23T07:29:27.629Z,83.57
2022-08-23T07:30:27.631Z,83.17
2022-08-23T07:31:27.647Z,83.07
2022-08-23T07:32:27.620Z,83.27
2022-08-23T07:33:27.620Z,83.07
2022-08-23T07:34:27.612Z,82.63
2022-08-23T07:35:27.605Z,82.63
2022-08-23T07:36:27.982Z,82.73
2022-08-23T07:37:27.607Z,82.73
2022-08-23T07:38:28.966Z,82.32
2022-08-23T07:39:27.601Z,82.29
2022-08-23T07:40:27.821Z,81.59
2022-08-23T07:41:27.601Z,82.09
2022-08-23T07:42:27.600Z,82.29
2022-08-23T07:43:27.600Z,80.74
2022-08-23T07:44:27.605Z,81.38
2022-08-23T07:45:27.593Z,81.38
2022-08-23T07:46:27.606Z,82.09
2022-08-23T07:47:27.591Z,81.59
2022-08-23T07:48:52.576Z,81.52
2022-08-23T07:49:29.356Z,81.59
2022-08-23T07:50:30.374Z,81.65
2022-08-23T07:51:27.586Z,80.94
2022-08-23T07:52:27.590Z,79.71
2022-08-23T07:53:37.818Z,79.71
2022-08-23T07:54:27.581Z,80.15
2022-08-23T07:55:27.578Z,80.24
2022-08-23T07:56:27.578Z,81.09
2022-08-23T07:57:27.578Z,81.24
2022-08-23T07:58:27.574Z,81.55
2022-08-23T07:59:30.419Z,80.54
2022-08-23T08:00:27.575Z,79.71
2022-08-23T08:01:27.601Z,79.41
2022-08-23T08:02:27.609Z,78.86
2022-08-23T08:03:27.569Z,78.23
2022-08-23T08:04:27.568Z,77.93
2022-08-23T08:05:27.570Z,78.73
2022-08-23T08:06:27.567Z,77.49
2022-08-23T08:07:27.598Z,75.99
2022-08-23T08:08:27.566Z,76.23
2022-08-23T08:09:27.564Z,77.43
2022-08-23T08:10:27.560Z,76.63
2022-08-23T08:11:32.161Z,77.23
2022-08-23T08:12:27.562Z,76.93
2022-08-23T08:13:27.563Z,76.73
2022-08-23T08:14:27.559Z,76.99
2022-08-23T08:15:27.558Z,76.65
2022-08-23T08:16:27.575Z,75.76
2022-08-23T08:17:27.825Z,75.56
2022-08-23T08:18:27.555Z,74.62
2022-08-23T08:19:27.555Z,74.42
2022-08-23T08:20:27.559Z,75.26
2022-08-23T08:21:27.555Z,75.52
2022-08-23T08:22:27.553Z,75.12
2022-08-23T08:23:27.552Z,73.79
2022-08-23T08:24:27.558Z,73.58
2022-08-23T08:25:27.553Z,73.28
2022-08-23T08:26:27.554Z,73.58
2022-08-23T08:27:27.550Z,73.19
2022-08-23T08:28:27.550Z,73.49
2022-08-23T08:29:27.553Z,73.62
2022-08-23T08:30:27.551Z,73.12
2022-08-23T08:31:27.681Z,73.62
2022-08-23T08:32:27.549Z,74.05
2022-08-23T08:33:30.796Z,75.19
2022-08-23T08:34:27.544Z,75.63
2022-08-23T08:35:27.542Z,76.87
2022-08-23T08:36:27.550Z,76.93
2022-08-23T08:37:27.571Z,76.63
2022-08-23T08:38:28.875Z,75.19
2022-08-23T08:39:27.547Z,75.05
2022-08-23T08:40:27.549Z,74.62
2022-08-23T08:41:27.546Z,74.72
2022-08-23T08:42:27.542Z,73.62
2022-08-23T08:43:27.550Z,72.78
2022-08-23T08:44:27.543Z,72.49
2022-08-23T08:45:27.542Z,71.89
2022-08-23T08:46:27.567Z,73.02
2022-08-23T08:47:27.775Z,72.59
2022-08-23T08:48:27.539Z,72.25
2022-08-23T08:49:27.544Z,71.32
2022-08-23T08:50:27.543Z,70.23
2022-08-23T08:51:27.538Z,70.12
2022-08-23T08:52:29.735Z,70.42
2022-08-23T08:53:27.541Z,70.32
2022-08-23T08:54:27.540Z,69.16
2022-08-23T08:55:27.538Z,70.49
2022-08-23T08:56:29.787Z,70.32
2022-08-23T08:57:27.921Z,71.03
2022-08-23T08:58:27.535Z,71.42
2022-08-23T08:59:27.536Z,71.96
2022-08-23T09:00:27.538Z,72.13
2022-08-23T09:01:27.563Z,71.99
2022-08-23T09:02:32.593Z,71.59
2022-08-23T09:03:27.578Z,71.26
2022-08-23T09:04:27.536Z,69.92
2022-08-23T09:05:27.540Z,68.76
2022-08-23T09:06:27.539Z,70.46
2022-08-23T09:07:31.068Z,69.13
2022-08-23T09:08:27.590Z,69.43
2022-08-23T09:09:27.536Z,68.93
2022-08-23T09:10:27.540Z,68.53
2022-08-23T09:11:27.535Z,68.43
2022-08-23T09:12:27.536Z,68.99
2022-08-23T09:13:27.535Z,69.49
2022-08-23T09:14:27.534Z,70.72
2022-08-23T09:15:27.536Z,70.12
2022-08-23T09:16:28.784Z,71.22
2022-08-23T09:17:27.538Z,69.23
2022-08-23T09:18:27.534Z,68.70
2022-08-23T09:19:27.533Z,68.49
2022-08-23T09:20:31.046Z,67.57
2022-08-23T09:21:28.433Z,67.36
2022-08-23T09:22:27.532Z,67.36
2022-08-23T09:23:27.532Z,65.97
2022-08-23T09:24:27.532Z,66.63
2022-08-23T09:25:27.534Z,65.64
2022-08-23T09:26:27.542Z,66.53
2022-08-23T09:27:27.532Z,67.23
2022-08-23T09:28:27.533Z,66.30
2022-08-23T09:29:27.534Z,67.23
2022-08-23T09:30:27.531Z,65.91
2022-08-23T09:31:27.608Z,66.96
2022-08-23T09:32:27.531Z,67.26
2022-08-23T09:33:27.531Z,67.26
2022-08-23T09:34:27.530Z,66.86
2022-08-23T09:35:27.532Z,67.19
2022-08-23T09:36:27.531Z,67.57
2022-08-23T09:37:27.532Z,66.89
2022-08-23T09:38:27.526Z,65.77
2022-08-23T09:39:30.882Z,66.06
2022-08-23T09:40:27.531Z,65.87
2022-08-23T09:41:27.542Z,65.67
2022-08-23T09:42:27.530Z,64.17
2022-08-23T09:43:27.528Z,64.07
2022-08-23T09:44:27.532Z,64.17
2022-08-23T09:45:28.889Z,64.07
2022-08-23T09:46:27.597Z,63.74
2022-08-23T09:47:27.529Z,64.44
2022-08-23T09:48:31.094Z,63.51
2022-08-23T09:49:27.528Z,63.64
2022-08-23T09:50:27.526Z,63.84
2022-08-23T09:51:27.523Z,65.11
2022-08-23T09:52:27.525Z,64.51
2022-08-23T09:53:27.529Z,63.71
2022-08-23T09:54:27.526Z,63.81
2022-08-23T09:55:27.526Z,63.48
2022-08-23T09:56:27.523Z,63.48
2022-08-23T09:57:27.824Z,62.78
2022-08-23T09:58:27.527Z,60.46
2022-08-23T09:59:27.629Z,61.25
2022-08-23T10:00:27.536Z,60.36
2022-08-23T10:01:27.571Z,60.76
2022-08-23T10:02:27.585Z,60.46
2022-08-23T10:03:27.536Z,59.36
2022-08-23T10:04:27.721Z,60.76
2022-08-23T10:05:27.541Z,60.76
2022-08-23T10:06:27.524Z,61.96
2022-08-23T10:07:27.529Z,60.06
2022-08-23T10:08:27.528Z,60.53
2022-08-23T10:09:27.527Z,61.46
2022-08-23T10:10:27.520Z,60.76
2022-08-23T10:11:27.524Z,61.49
2022-08-23T10:12:27.524Z,61.29
2022-08-23T10:13:27.525Z,62.78
2022-08-23T10:14:30.063Z,61.49
2022-08-23T10:15:27.525Z,60.76
2022-08-23T10:16:27.556Z,59.30
2022-08-23T10:17:27.524Z,60.89
2022-08-23T10:18:27.539Z,60.26
2022-08-23T10:19:27.524Z,60.16
2022-08-23T10:20:27.537Z,59.96
2022-08-23T10:21:27.521Z,59.77
2022-08-23T10:22:27.522Z,59.66
2022-08-23T10:23:27.525Z,59.66
2022-08-23T10:24:27.527Z,59.56
2022-08-23T10:25:27.525Z,60.79
2022-08-23T10:26:27.526Z,60.79
2022-08-23T10:27:27.527Z,61.99
2022-08-23T10:28:27.526Z,61.58
2022-08-23T10:29:27.524Z,60.19
2022-08-23T10:30:27.524Z,61.49
2022-08-23T10:31:27.561Z,60.96
2022-08-23T10:32:27.526Z,59.47
2022-08-23T10:33:27.528Z,60.24
2022-08-23T10:34:29.910Z,57.75
2022-08-23T10:35:27.525Z,58.14
2022-08-23T10:36:27.526Z,58.54
2022-08-23T10:37:27.526Z,57.82
2022-08-23T10:38:27.526Z,58.01
2022-08-23T10:39:27.527Z,58.01
2022-08-23T10:40:27.565Z,58.91
2022-08-23T10:41:27.527Z,58.48
2022-08-23T10:42:27.528Z,58.75
2022-08-23T10:43:27.527Z,57.82
2022-08-23T10:44:27.543Z,59.83
2022-08-23T10:45:27.527Z,59.94
2022-08-23T10:46:27.560Z,60.03
2022-08-23T10:47:27.551Z,60.86
2022-08-23T10:48:27.530Z,60.83
2022-08-23T10:49:27.533Z,60.46
2022-08-23T10:50:27.531Z,60.36
2022-08-23T10:51:32.037Z,60.69
2022-08-23T10:52:27.533Z,60.69
2022-08-23T10:53:27.532Z,61.29
2022-08-23T10:54:27.533Z,60.86
2022-08-23T10:55:27.531Z,61.06
2022-08-23T10:56:27.534Z,60.24
2022-08-23T10:57:27.531Z,58.44
2022-08-23T10:58:27.537Z,58.31
2022-08-23T10:59:27.536Z,58.81
2022-08-23T11:00:27.533Z,57.99
2022-08-23T11:01:27.582Z,57.89
2022-08-23T11:02:27.572Z,58.39
2022-08-23T11:03:29.021Z,57.89
2022-08-23T11:04:27.536Z,58.48
2022-08-23T11:05:27.537Z,58.28
2022-08-23T11:06:27.537Z,57.82
2022-08-23T11:07:27.536Z,58.11
2022-08-23T11:08:27.541Z,58.61
2022-08-23T11:09:27.538Z,59.81
2022-08-23T11:10:27.538Z,59.11
2022-08-23T11:11:27.539Z,58.11
2022-08-23T11:12:27.541Z,58.01
2022-08-23T11:13:27.542Z,58.48
2022-08-23T11:14:27.540Z,58.28
2022-08-23T11:15:27.587Z,57.99
2022-08-23T11:16:27.543Z,58.09
2022-08-23T11:17:27.545Z,58.48
2022-08-23T11:18:31.302Z,56.70
2022-08-23T11:19:27.544Z,57.19
2022-08-23T11:20:27.547Z,57.29
2022-08-23T11:21:27.545Z,56.99
2022-08-23T11:22:27.543Z,56.89
2022-08-23T11:23:27.546Z,55.77
2022-08-23T11:24:27.548Z,56.30
2022-08-23T11:25:27.547Z,56.27
2022-08-23T11:26:27.549Z,56.27
2022-08-23T11:27:27.548Z,56.84
2022-08-23T11:28:30.420Z,55.65
2022-08-23T11:29:27.548Z,54.72
2022-08-23T11:30:27.553Z,55.91
2022-08-23T11:31:27.567Z,54.33
2022-08-23T11:32:29.965Z,54.53
2022-08-23T11:33:27.553Z,56.21
2022-08-23T11:34:29.478Z,55.72
2022-08-23T11:35:27.550Z,56.44
2022-08-23T11:36:27.555Z,56.64
2022-08-23T11:37:27.554Z,56.41
2022-08-23T11:38:27.556Z,56.21
2022-08-23T11:39:27.552Z,55.72
2022-08-23T11:40:28.514Z,55.00
2022-08-23T11:41:27.556Z,55.12
2022-08-23T11:42:27.556Z,55.32
2022-08-23T11:43:27.557Z,54.93
2022-08-23T11:44:27.561Z,54.43
2022-08-23T11:45:27.559Z,53.63
2022-08-23T11:46:27.618Z,53.46
2022-08-23T11:47:27.558Z,53.26
2022-08-23T11:48:27.561Z,52.99
2022-08-23T11:49:27.559Z,53.86
2022-08-23T11:50:27.602Z,53.58
2022-08-23T11:51:27.559Z,55.05
2022-08-23T11:52:27.563Z,53.46
2022-08-23T11:53:27.565Z,54.88
2022-08-23T11:54:27.588Z,54.88
2022-08-23T11:55:27.566Z,55.18
2022-08-23T11:56:27.570Z,54.85
2022-08-23T11:57:28.188Z,54.65
2022-08-23T11:58:27.567Z,54.35
2022-08-23T11:59:27.569Z,54.55
2022-08-23T12:00:28.959Z,55.02
2022-08-23T12:01:27.573Z,54.13
2022-08-23T12:02:27.644Z,54.40
2022-08-23T12:03:27.682Z,52.69
2022-08-23T12:04:27.571Z,51.82
2022-08-23T12:05:27.586Z,53.23
2022-08-23T12:06:27.571Z,53.70
2022-08-23T12:07:27.572Z,52.89
2022-08-23T12:08:27.572Z,51.40
2022-08-23T12:09:27.575Z,51.60
2022-08-23T12:10:27.575Z,51.50
2022-08-23T12:11:27.575Z,52.17
2022-08-23T12:12:27.578Z,50.21
2022-08-23T12:13:27.579Z,50.51
2022-08-23T12:14:27.578Z,50.83
2022-08-23T12:15:27.605Z,50.83
2022-08-23T12:16:28.883Z,50.40
2022-08-23T12:17:28.710Z,50.81
2022-08-23T12:18:27.582Z,50.63
2022-08-23T12:19:27.582Z,50.53
2022-08-23T12:20:27.579Z,51.23
2022-08-23T12:21:27.588Z,52.12
2022-08-23T12:22:28.694Z,50.95
2022-08-23T12:23:27.585Z,52.24
2022-08-23T12:24:27.587Z,51.92
2022-08-23T12:25:27.586Z,50.65
2022-08-23T12:26:28.523Z,52.31
2022-08-23T12:27:27.591Z,52.12
2022-08-23T12:28:27.590Z,52.24
2022-08-23T12:29:27.593Z,52.74
2022-08-23T12:30:27.590Z,52.74
2022-08-23T12:31:27.648Z,52.54
2022-08-23T12:32:30.381Z,53.56
2022-08-23T12:33:27.598Z,53.26
2022-08-23T12:34:27.596Z,53.09
2022-08-23T12:35:27.600Z,54.38
2022-08-23T12:36:27.597Z,52.79
2022-08-23T12:37:27.599Z,53.19
2022-08-23T12:38:27.600Z,53.19
2022-08-23T12:39:27.597Z,53.58
2022-08-23T12:40:27.601Z,53.98
2022-08-23T12:41:27.600Z,53.28
2022-08-23T12:42:27.602Z,52.96
2022-08-23T12:43:27.604Z,52.84
2022-08-23T12:44:27.602Z,52.94
2022-08-23T12:45:27.606Z,53.23
2022-08-23T12:46:27.666Z,53.31
2022-08-23T12:47:27.607Z,52.12
2022-08-23T12:48:27.608Z,52.49
2022-08-23T12:49:27.611Z,52.09
2022-08-23T12:50:32.726Z,53.01
2022-08-23T12:51:27.609Z,51.42
2022-08-23T12:52:27.611Z,52.04
2022-08-23T12:53:27.614Z,51.75
2022-08-23T12:54:27.613Z,52.24
2022-08-23T12:55:27.611Z,53.36
2022-08-23T12:56:31.851Z,53.63
2022-08-23T12:57:27.689Z,54.23
2022-08-23T12:58:31.526Z,53.23
2022-08-23T12:59:27.616Z,54.70
2022-08-23T13:00:27.619Z,52.22